Pagina principale
METAR-TAF:

METAR-TAF

Aeroporti :

Aeroporto di Graz

Graz, Austria

latitudine: 47-00N, longitudine: 015-26E, altezza: 340 m

Osservazione

Il bollettino è stato emesso 27 minuti fa, alle 19:20 UTC
Vento 1 kt da direzioni variabili
Temperature 3°C
Umidità 75%
Pressione 1022 hPa
Visibilità 10 km o più
Poco nuvoloso ad un'altezza di 20000 ft
Nuvoloso ad un'altezza di 21000 ft

METAR: LOWG 161920Z AUTO VRB01KT 9999 FEW200 BKN210 03/M01 Q1022 NOSIG

Ora: 20:47 (19:47 UTC)

Previsione

Il bollettino è stato emesso 2 ore e 32 minuti fa, alle 17:15 UTC
Previsione valida dal 16 alle 18 UTC al 17 alle 18 UTC
Vento 2 kt da direzioni variabili
Visibilità 10 km o più
nessuna nube inferiore a 1500 m e nessun cumulonembo
Probabilità 30% :
Temporaneamente
dal 17 alle 02 UTC al 17 alle 07 UTC
Visibilità: 1200 m

TAF: LOWG 161715Z 1618/1718 VRB02KT CAVOK TX15/1714Z TNM00/1705Z PROB30 TEMPO 1702/1707 1200 FZBCFG NSC

Osservazioni e previsioni meteorologiche di più di 4000 aeroporti (messaggi METAR e TAF).

Le stazioni disponibili sono rappresentate dai dischi gialli e rossi sulla carta.

Puntare il mouse per vedere il nome della stazione.

Clicca sopra per visualizzare le osservazioni e previsioni meteorologiche.

Per cambiare la mappa : fare clic sui pulsanti verdi con una croce nera per ingrandire, il pulsante verde con un trattino per diminuire, o sulla freccia verde per le mappe adiacenti.


METAR-TAF: